Terminal Aerodrome Forecast
Issued by NWS

Home | Current Version | Previous Version | Text Only | Print | Product List | Glossary On
Versions: 1 2 3 4 5 6 7 8 9 10 11 12 13 14 15 16 17
372
FTUS41 KILN 271317 AAA
TAFLUK
TAF AMD
KLUK 271317Z 2713/2812 VRB04KT P6SM SCT050 BKN120
     FM271700 28004KT P6SM SCT060
     FM280000 00000KT P6SM SKC
     FM280600 00000KT 3SM BR SKC
     FM281000 00000KT 1/2SM FG SKC=

USA.gov is the U.S. government's official web portal to all federal, state and local government web resources and services.